createdAt,value
2023-04-10T00:01:36.102Z,97.57
2023-04-10T00:04:06.189Z,97.93
2023-04-10T00:06:34.799Z,104.07
2023-04-10T00:09:03.042Z,95.38
2023-04-10T00:11:31.435Z,96.60
2023-04-10T00:13:59.600Z,101.25
2023-04-10T00:16:28.137Z,110.75
2023-04-10T00:18:56.280Z,103.88
2023-04-10T00:21:26.327Z,117.90
2023-04-10T00:23:54.772Z,114.47
2023-04-10T00:26:23.895Z,115.47
2023-04-10T00:28:52.137Z,111.75
2023-04-10T00:31:20.730Z,108.85
2023-04-10T00:33:49.005Z,108.13
2023-04-10T00:36:17.670Z,107.28
2023-04-10T00:38:49.690Z,115.00
2023-04-10T00:43:46.443Z,118.82
2023-04-10T00:46:14.983Z,111.72
2023-04-10T00:48:43.490Z,130.70
2023-04-10T00:51:13.074Z,119.22
2023-04-10T00:53:41.306Z,125.80
2023-04-10T00:56:11.295Z,130.88
2023-04-10T00:58:39.420Z,130.43
2023-04-10T01:01:08.631Z,137.27
2023-04-10T01:03:37.251Z,142.13
2023-04-10T01:06:09.772Z,139.77
2023-04-10T01:08:44.170Z,144.13
2023-04-10T01:11:21.137Z,142.05
2023-04-10T01:13:54.625Z,150.57
2023-04-10T01:16:28.092Z,152.98
2023-04-10T01:19:01.865Z,149.30
2023-04-10T01:21:31.416Z,150.77
2023-04-10T01:24:22.998Z,155.85
2023-04-10T01:27:07.039Z,138.35
2023-04-10T01:29:37.688Z,141.55
2023-04-10T01:32:10.394Z,149.23
2023-04-10T01:34:41.893Z,153.90
2023-04-10T01:37:15.373Z,161.60
2023-04-10T01:39:44.178Z,151.23
2023-04-10T01:42:15.366Z,155.30
2023-04-10T01:44:47.771Z,162.25
2023-04-10T01:47:17.960Z,147.98
2023-04-10T01:49:48.365Z,168.70
2023-04-10T01:52:17.041Z,168.20
2023-04-10T01:54:48.423Z,177.80
2023-04-10T01:57:17.079Z,174.70
2023-04-10T01:59:46.604Z,159.95
2023-04-10T02:02:15.107Z,166.40
2023-04-10T02:04:43.471Z,171.63
2023-04-10T02:07:17.203Z,182.23
2023-04-10T02:09:52.027Z,186.25
2023-04-10T02:12:25.019Z,187.30
2023-04-10T02:14:56.114Z,189.15
2023-04-10T02:17:28.717Z,180.83
2023-04-10T02:19:57.318Z,185.77
2023-04-10T02:22:26.538Z,187.77
2023-04-10T02:24:55.395Z,192.23
2023-04-10T02:27:31.290Z,188.18
2023-04-10T02:30:00.784Z,192.70
2023-04-10T02:32:29.325Z,200.25
2023-04-10T02:34:57.869Z,198.60
2023-04-10T02:37:26.667Z,207.07
2023-04-10T02:39:55.671Z,207.60
2023-04-10T02:42:24.069Z,220.70
2023-04-10T02:44:52.165Z,235.93
2023-04-10T02:47:21.947Z,232.73
2023-04-10T02:49:50.178Z,235.68
2023-04-10T02:52:18.769Z,228.18
2023-04-10T02:54:47.461Z,239.52
2023-04-10T02:57:15.967Z,212.52
2023-04-10T02:59:44.558Z,221.48
2023-04-10T03:02:12.974Z,224.23
2023-04-10T03:04:42.996Z,233.45
2023-04-10T03:07:11.444Z,229.40
2023-04-10T03:09:39.547Z,244.35
2023-04-10T03:12:07.959Z,246.15
2023-04-10T03:14:36.210Z,243.10
2023-04-10T03:17:04.571Z,252.85
2023-04-10T03:19:32.732Z,274.02
2023-04-10T03:22:02.504Z,281.42
2023-04-10T03:24:30.618Z,271.85
2023-04-10T03:26:59.006Z,298.38
2023-04-10T03:29:27.131Z,303.02
2023-04-10T03:31:55.921Z,330.48
2023-04-10T03:34:24.113Z,312.10
2023-04-10T03:36:52.500Z,365.85
2023-04-10T03:39:22.000Z,388.02
2023-04-10T03:41:50.434Z,393.02
2023-04-10T03:44:19.000Z,400.15
2023-04-10T03:46:47.402Z,475.60
2023-04-10T03:49:16.297Z,425.13
2023-04-10T03:51:44.673Z,408.60
2023-04-10T03:54:12.775Z,417.27
2023-04-10T03:56:42.674Z,423.73
2023-04-10T03:59:10.800Z,473.80
2023-04-10T04:01:39.427Z,514.47
2023-04-10T04:04:07.713Z,458.48
2023-04-10T04:06:36.444Z,462.60
2023-04-10T04:09:04.667Z,469.38
2023-04-10T04:11:33.062Z,489.52
2023-04-10T04:14:02.550Z,547.40
2023-04-10T04:16:31.024Z,516.40
2023-04-10T04:18:59.184Z,517.80
2023-04-10T04:21:27.560Z,509.02
2023-04-10T04:23:55.914Z,492.02
2023-04-10T04:26:24.996Z,508.45
2023-04-10T04:28:53.252Z,502.65
2023-04-10T04:31:24.178Z,550.53
2023-04-10T04:33:52.855Z,532.40
2023-04-10T04:36:21.375Z,627.22
2023-04-10T04:38:49.551Z,695.92
2023-04-10T04:41:20.020Z,626.38
2023-04-10T04:43:49.372Z,725.25
2023-04-10T04:46:17.842Z,643.88
2023-04-10T04:48:47.415Z,591.35
2023-04-10T04:51:15.779Z,774.05
2023-04-10T04:53:44.128Z,610.88
2023-04-10T04:56:12.774Z,628.20
2023-04-10T04:58:40.949Z,677.33
2023-04-10T05:01:09.592Z,638.75
2023-04-10T05:03:38.159Z,598.97
2023-04-10T05:06:08.901Z,508.48
2023-04-10T05:08:36.998Z,729.28
2023-04-10T05:11:05.742Z,603.58
2023-04-10T05:13:33.953Z,591.15
2023-04-10T05:16:02.375Z,709.88
2023-04-10T05:18:30.782Z,640.72
2023-04-10T05:20:59.332Z,713.00
2023-04-10T05:23:28.970Z,681.90
2023-04-10T05:25:57.352Z,746.28
2023-04-10T05:28:25.764Z,829.40
2023-04-10T05:30:54.366Z,682.35
2023-04-10T05:33:22.499Z,700.50
2023-04-10T05:35:51.277Z,681.40
2023-04-10T05:38:19.396Z,945.30
2023-04-10T05:40:49.277Z,854.45
2023-04-10T05:43:17.889Z,716.83
2023-04-10T05:45:46.253Z,1096.95
2023-04-10T05:48:14.479Z,868.85
2023-04-10T05:50:42.835Z,578.80
2023-04-10T05:53:13.764Z,707.28
2023-04-10T05:55:42.313Z,570.92
2023-04-10T05:58:11.800Z,522.03
2023-04-10T06:00:40.198Z,605.80
2023-04-10T06:03:08.603Z,569.50
2023-04-10T06:05:37.017Z,511.02
2023-04-10T06:08:05.372Z,521.63
2023-04-10T06:10:33.835Z,849.60
2023-04-10T06:13:01.979Z,490.20
2023-04-10T06:15:31.728Z,517.92
2023-04-10T06:17:59.858Z,459.83
2023-04-10T06:20:28.419Z,633.38
2023-04-10T06:22:56.551Z,465.05
2023-04-10T06:25:25.058Z,581.78
2023-04-10T06:27:53.186Z,656.08
2023-04-10T06:30:21.748Z,645.55
2023-04-10T06:32:51.472Z,513.30
2023-04-10T06:35:21.234Z,439.05
2023-04-10T06:37:49.741Z,462.08
2023-04-10T06:40:18.826Z,422.08
2023-04-10T06:42:46.945Z,432.27
2023-04-10T06:45:15.307Z,498.08
2023-04-10T06:47:43.540Z,376.98
2023-04-10T06:50:13.550Z,336.30
2023-04-10T06:52:41.816Z,416.65
2023-04-10T06:55:10.845Z,339.45
2023-04-10T06:57:38.978Z,351.02
2023-04-10T07:00:09.358Z,326.58
2023-04-10T07:02:37.469Z,316.83
2023-04-10T07:05:06.538Z,285.38
2023-04-10T07:07:36.155Z,299.50
2023-04-10T07:10:04.990Z,284.88
2023-04-10T07:12:33.348Z,283.10
2023-04-10T07:15:01.693Z,268.48
2023-04-10T07:17:29.939Z,271.05
2023-04-10T07:19:58.605Z,259.85
2023-04-10T07:22:27.122Z,256.33
2023-04-10T07:24:57.427Z,231.80
2023-04-10T07:27:25.712Z,213.80
2023-04-10T07:29:56.354Z,216.07
2023-04-10T07:32:24.829Z,215.88
2023-04-10T07:34:53.429Z,205.73
2023-04-10T07:37:22.014Z,204.30
2023-04-10T07:39:50.535Z,176.32
2023-04-10T07:42:20.612Z,184.45
2023-04-10T07:44:48.978Z,175.57
2023-04-10T07:47:17.160Z,165.90
2023-04-10T07:49:45.801Z,186.65
2023-04-10T07:52:13.909Z,180.73
2023-04-10T07:54:42.322Z,184.90
2023-04-10T07:57:10.777Z,172.25
2023-04-10T07:59:40.962Z,179.00
2023-04-10T08:02:09.208Z,168.18
2023-04-10T08:04:37.916Z,189.68
2023-04-10T08:07:06.365Z,192.60
2023-04-10T08:09:34.742Z,201.63
2023-04-10T08:12:02.910Z,208.93
2023-04-10T08:14:31.497Z,227.68
2023-04-10T08:17:01.874Z,243.70
2023-04-10T08:19:30.965Z,253.70
2023-04-10T08:21:59.058Z,249.45
2023-04-10T08:24:27.636Z,269.70
2023-04-10T08:26:55.832Z,276.48
2023-04-10T08:32:00.736Z,271.98
2023-04-10T08:34:30.486Z,259.58
2023-04-10T08:36:58.820Z,277.52
2023-04-10T08:39:27.291Z,299.70
2023-04-10T08:41:55.966Z,300.33
2023-04-10T08:44:24.383Z,298.15
2023-04-10T08:46:53.359Z,282.15
2023-04-10T08:49:26.337Z,289.40
2023-04-10T08:51:58.215Z,308.02
2023-04-10T08:54:28.914Z,305.23
2023-04-10T08:56:58.495Z,294.15
2023-04-10T08:59:27.197Z,317.30
2023-04-10T09:01:55.580Z,316.85
2023-04-10T09:04:24.655Z,351.95
2023-04-10T09:06:53.598Z,349.17
2023-04-10T09:09:23.369Z,341.40
2023-04-10T09:12:00.985Z,398.27
2023-04-10T09:14:31.310Z,361.83
2023-04-10T09:17:15.398Z,362.38
2023-04-10T09:19:44.557Z,373.67
2023-04-10T09:22:12.977Z,415.73
2023-04-10T09:24:44.810Z,394.58
2023-04-10T09:27:13.189Z,401.50
2023-04-10T09:29:44.833Z,379.80
2023-04-10T09:32:13.500Z,403.10
2023-04-10T09:34:58.729Z,403.80
2023-04-10T09:37:32.970Z,425.25
2023-04-10T09:40:03.446Z,405.20
2023-04-10T09:42:33.648Z,431.83
2023-04-10T09:45:02.382Z,416.05
2023-04-10T09:47:31.129Z,429.88
2023-04-10T09:50:01.340Z,452.95
2023-04-10T09:52:30.480Z,492.98
2023-04-10T09:54:59.675Z,420.15
2023-04-10T09:57:30.499Z,432.52
2023-04-10T09:59:59.947Z,485.23
2023-04-10T10:02:31.179Z,433.52
2023-04-10T10:05:01.857Z,411.40
2023-04-10T10:07:31.620Z,396.65
2023-04-10T10:10:00.570Z,422.48
2023-04-10T10:12:36.114Z,429.70
2023-04-10T10:15:10.593Z,417.35
2023-04-10T10:17:45.661Z,456.35
2023-04-10T10:20:15.325Z,409.42
2023-04-10T10:22:43.756Z,450.48
2023-04-10T10:25:12.296Z,385.23
2023-04-10T10:27:43.225Z,353.60
2023-04-10T10:30:28.042Z,417.67
2023-04-10T10:32:57.497Z,360.92
2023-04-10T10:35:29.507Z,414.02
2023-04-10T10:40:31.207Z,361.88
2023-04-10T10:43:06.817Z,362.23
2023-04-10T10:45:41.320Z,349.42
2023-04-10T10:48:09.798Z,346.00
2023-04-10T10:50:56.791Z,334.85
2023-04-10T10:53:38.659Z,311.00
2023-04-10T10:58:58.731Z,297.15
2023-04-10T11:01:27.529Z,270.10
2023-04-10T11:03:56.966Z,291.48
2023-04-10T11:06:49.710Z,283.05
2023-04-10T11:09:48.725Z,271.52
2023-04-10T11:12:17.643Z,267.92
2023-04-10T11:14:58.324Z,277.38
2023-04-10T11:17:50.051Z,262.02
2023-04-10T11:20:18.445Z,257.25
2023-04-10T11:23:10.341Z,250.82
2023-04-10T11:25:49.374Z,265.55
2023-04-10T11:28:37.454Z,256.83
2023-04-10T11:31:18.598Z,251.52
2023-04-10T11:33:48.070Z,244.05
2023-04-10T11:36:18.007Z,213.00
2023-04-10T11:38:57.016Z,216.32
2023-04-10T11:41:30.559Z,214.13
2023-04-10T11:43:59.676Z,211.85
2023-04-10T11:46:29.832Z,214.52
2023-04-10T11:49:00.758Z,199.70
2023-04-10T11:51:29.344Z,205.98
2023-04-10T11:54:10.939Z,201.55
2023-04-10T11:56:40.028Z,191.00
2023-04-10T11:59:10.841Z,162.77
2023-04-10T12:01:43.094Z,156.70
2023-04-10T12:04:16.280Z,138.98
2023-04-10T12:06:46.252Z,153.45
2023-04-10T12:09:16.002Z,158.63
2023-04-10T12:11:51.514Z,170.02
2023-04-10T12:14:20.698Z,159.95
2023-04-10T12:16:50.463Z,150.50
2023-04-10T12:19:19.386Z,166.18
2023-04-10T12:21:47.857Z,145.07
2023-04-10T12:24:43.339Z,141.43
2023-04-10T12:27:17.809Z,125.03
2023-04-10T12:29:46.853Z,132.38
2023-04-10T12:32:16.791Z,127.35
2023-04-10T12:34:51.220Z,116.88
2023-04-10T12:37:19.398Z,108.00
2023-04-10T12:39:47.957Z,121.75
2023-04-10T12:42:17.581Z,117.53
2023-04-10T12:44:56.691Z,114.22
2023-04-10T12:47:27.056Z,130.05
2023-04-10T12:50:07.188Z,123.57
2023-04-10T12:52:35.472Z,117.53
2023-04-10T12:55:15.354Z,119.20
2023-04-10T12:57:44.710Z,122.13
2023-04-10T13:00:15.392Z,123.50
2023-04-10T13:02:45.721Z,138.68
2023-04-10T13:05:14.488Z,144.95
2023-04-10T13:07:42.970Z,128.40
2023-04-10T13:10:11.937Z,130.55
2023-04-10T13:12:41.880Z,137.15
2023-04-10T13:15:11.756Z,137.23
2023-04-10T13:17:41.112Z,142.18
2023-04-10T13:20:12.031Z,139.20
2023-04-10T13:22:40.266Z,150.77
2023-04-10T13:25:09.358Z,138.73
2023-04-10T13:27:37.657Z,136.57
2023-04-10T13:30:07.024Z,122.32
2023-04-10T13:32:35.564Z,117.70
2023-04-10T13:35:04.121Z,120.80
2023-04-10T13:37:33.585Z,125.30
2023-04-10T13:40:02.150Z,112.75
2023-04-10T13:42:30.977Z,122.82
2023-04-10T13:44:59.547Z,126.38
2023-04-10T13:47:27.736Z,129.93
2023-04-10T13:49:56.273Z,127.05
2023-04-10T13:52:24.605Z,122.72
2023-04-10T13:54:54.341Z,121.20
2023-04-10T13:57:22.460Z,103.18
2023-04-10T13:59:50.830Z,107.82
2023-04-10T14:02:19.299Z,112.63
2023-04-10T14:04:47.749Z,117.50
2023-04-10T14:07:15.858Z,104.80
2023-04-10T14:09:44.338Z,108.03
2023-04-10T14:12:16.133Z,101.90
2023-04-10T14:14:45.007Z,105.22
2023-04-10T14:17:13.309Z,104.03
2023-04-10T14:19:43.220Z,101.53
2023-04-10T14:22:11.430Z,103.32
2023-04-10T14:24:39.977Z,95.45
2023-04-10T14:27:08.095Z,102.32
2023-04-10T14:29:42.746Z,100.47
2023-04-10T14:32:16.118Z,93.05
2023-04-10T14:34:45.929Z,93.50
2023-04-10T14:37:15.438Z,92.05
2023-04-10T14:39:44.158Z,103.85
2023-04-10T14:42:12.277Z,100.43
2023-04-10T14:44:42.027Z,106.78
2023-04-10T14:47:10.661Z,90.40
2023-04-10T14:49:39.241Z,98.95
2023-04-10T14:52:07.587Z,95.38
2023-04-10T14:54:36.006Z,99.00
2023-04-10T14:57:04.370Z,92.28
2023-04-10T14:59:32.950Z,94.15
2023-04-10T15:02:02.876Z,92.88
2023-04-10T15:04:31.427Z,98.10
2023-04-10T15:06:59.782Z,95.82
2023-04-10T15:09:28.521Z,86.88
2023-04-10T15:11:56.907Z,93.28
2023-04-10T15:14:25.648Z,102.10
2023-04-10T15:16:54.408Z,94.82
2023-04-10T15:19:24.515Z,90.53
2023-04-10T15:21:52.790Z,86.15
2023-04-10T15:24:21.701Z,92.38
2023-04-10T15:26:50.161Z,94.53
2023-04-10T15:29:18.532Z,94.53
2023-04-10T15:31:46.894Z,95.63
2023-04-10T15:34:15.350Z,101.88
2023-04-10T15:36:44.890Z,105.63
2023-04-10T15:39:13.438Z,113.70
2023-04-10T15:41:41.653Z,115.50
2023-04-10T15:44:10.250Z,116.13
2023-04-10T15:46:38.471Z,118.95
2023-04-10T15:49:06.875Z,131.23
2023-04-10T15:51:35.102Z,124.68
2023-04-10T15:54:05.496Z,134.77
2023-04-10T15:56:34.342Z,141.98
2023-04-10T15:59:03.138Z,135.40
2023-04-10T16:01:31.430Z,131.35
2023-04-10T16:04:00.149Z,141.30
2023-04-10T16:06:29.052Z,140.38
2023-04-10T16:08:57.557Z,140.27
2023-04-10T16:11:27.413Z,147.75
2023-04-10T16:13:56.182Z,128.60
2023-04-10T16:16:25.780Z,137.73
2023-04-10T16:18:54.914Z,132.50
2023-04-10T16:21:23.077Z,116.70
2023-04-10T16:23:51.520Z,133.15
2023-04-10T16:26:19.912Z,125.43
2023-04-10T16:28:50.156Z,110.15
2023-04-10T16:31:18.500Z,121.75
2023-04-10T16:33:47.289Z,107.03
2023-04-10T16:36:15.685Z,107.80
2023-04-10T16:38:45.098Z,105.85
2023-04-10T16:41:16.963Z,115.05
2023-04-10T16:46:15.506Z,128.90
2023-04-10T16:48:44.957Z,139.00
2023-04-10T16:51:17.781Z,130.48
2023-04-10T16:53:46.532Z,133.13
2023-04-10T16:56:14.859Z,144.15
2023-04-10T16:58:43.624Z,133.23
2023-04-10T17:01:17.942Z,129.32
2023-04-10T17:03:48.248Z,141.50
2023-04-10T17:06:17.048Z,141.52
2023-04-10T17:08:46.027Z,136.02
2023-04-10T17:11:14.638Z,146.50
2023-04-10T17:13:43.538Z,146.10
2023-04-10T17:16:11.632Z,133.38
2023-04-10T17:18:41.763Z,128.65
2023-04-10T17:21:12.821Z,128.20
2023-04-10T17:23:41.646Z,130.98
2023-04-10T17:26:14.018Z,133.38
2023-04-10T17:28:44.798Z,136.32
2023-04-10T17:31:13.498Z,125.88
2023-04-10T17:33:43.704Z,124.55
2023-04-10T17:36:13.009Z,130.65
2023-04-10T17:38:42.444Z,128.05
2023-04-10T17:41:11.441Z,133.30
2023-04-10T17:43:40.235Z,129.30
2023-04-10T17:46:08.487Z,137.02
2023-04-10T17:48:39.002Z,129.57
2023-04-10T17:51:09.260Z,125.43
2023-04-10T17:53:38.311Z,121.30
2023-04-10T17:56:07.136Z,133.77
2023-04-10T17:58:35.812Z,136.80
2023-04-10T18:01:04.079Z,113.18
2023-04-10T18:03:32.640Z,99.68
2023-04-10T18:06:00.956Z,93.65
2023-04-10T18:08:31.041Z,91.32
2023-04-10T18:10:59.314Z,87.32
2023-04-10T18:13:27.954Z,86.75
2023-04-10T18:15:56.480Z,76.03
2023-04-10T18:18:25.219Z,37.15
2023-04-10T18:20:53.504Z,25.20
2023-04-10T18:23:24.081Z,14.43
2023-04-10T18:25:55.017Z,14.68
2023-04-10T18:28:24.188Z,19.05
2023-04-10T18:30:54.793Z,16.45
2023-04-10T18:33:24.235Z,12.32
2023-04-10T18:35:54.011Z,10.88
2023-04-10T18:38:22.589Z,9.52
2023-04-10T18:40:50.985Z,12.63
2023-04-10T18:43:21.072Z,15.13
2023-04-10T18:45:49.526Z,15.77
2023-04-10T18:48:18.886Z,13.07
2023-04-10T18:50:47.105Z,9.93
2023-04-10T18:53:15.775Z,43.97
2023-04-10T18:55:50.618Z,12.77
2023-04-10T18:58:21.118Z,18.38
2023-04-10T19:00:49.400Z,10.05
2023-04-10T19:03:18.284Z,10.05
2023-04-10T19:05:47.887Z,11.57
2023-04-10T19:08:17.084Z,9.32
2023-04-10T19:10:45.547Z,12.18
2023-04-10T19:13:14.096Z,7.93
2023-04-10T19:15:44.537Z,11.15
2023-04-10T19:18:14.962Z,9.00
2023-04-10T19:20:52.796Z,12.63
2023-04-10T19:23:22.015Z,12.05
2023-04-10T19:25:53.437Z,13.65
2023-04-10T19:28:23.710Z,8.75
2023-04-10T19:30:53.446Z,9.05
2023-04-10T19:33:22.174Z,9.55
2023-04-10T19:35:50.469Z,14.48
2023-04-10T19:38:19.419Z,8.13
2023-04-10T19:40:47.566Z,8.52
2023-04-10T19:43:16.044Z,9.00
2023-04-10T19:45:44.269Z,7.28
2023-04-10T19:48:15.863Z,6.85
2023-04-10T19:50:44.003Z,11.27
2023-04-10T19:53:15.354Z,10.77
2023-04-10T19:55:45.393Z,9.35
2023-04-10T19:58:35.701Z,22.92
2023-04-10T20:01:06.304Z,30.65
2023-04-10T20:03:37.553Z,23.48
2023-04-10T20:06:07.235Z,21.08
2023-04-10T20:08:36.111Z,34.85
2023-04-10T20:11:05.976Z,16.88
2023-04-10T20:13:34.775Z,10.45
2023-04-10T20:16:03.645Z,13.32
2023-04-10T20:18:32.484Z,11.18
2023-04-10T20:21:02.089Z,11.93
2023-04-10T20:23:30.669Z,13.05
2023-04-10T20:25:58.770Z,12.82
2023-04-10T20:28:27.475Z,14.15
2023-04-10T20:30:55.694Z,18.55
2023-04-10T20:33:24.409Z,13.95
2023-04-10T20:35:54.189Z,17.13
2023-04-10T20:38:24.183Z,18.23
2023-04-10T20:40:52.290Z,16.92
2023-04-10T20:43:21.400Z,16.88
2023-04-10T20:45:49.706Z,18.40
2023-04-10T20:48:18.087Z,17.80
2023-04-10T20:50:49.099Z,24.73
2023-04-10T20:53:17.787Z,22.23
2023-04-10T20:55:47.350Z,18.23
2023-04-10T20:58:15.724Z,27.73
2023-04-10T21:00:43.969Z,25.50
2023-04-10T21:03:12.680Z,22.50
2023-04-10T21:05:42.068Z,21.48
2023-04-10T21:08:10.720Z,18.02
2023-04-10T21:10:43.931Z,17.63
2023-04-10T21:13:15.718Z,17.58
2023-04-10T21:15:44.281Z,18.47
2023-04-10T21:18:12.896Z,19.00
2023-04-10T21:20:41.247Z,19.30
2023-04-10T21:23:10.146Z,16.42
2023-04-10T21:25:39.597Z,18.05
2023-04-10T21:28:07.966Z,20.00
2023-04-10T21:30:37.741Z,18.25
2023-04-10T21:33:06.193Z,20.13
2023-04-10T21:35:34.512Z,21.50
2023-04-10T21:38:03.002Z,21.88
2023-04-10T21:40:34.309Z,19.08
2023-04-10T21:43:03.176Z,18.65
2023-04-10T21:45:31.634Z,15.48
2023-04-10T21:48:01.624Z,18.80
2023-04-10T21:50:30.107Z,16.88
2023-04-10T21:53:00.029Z,17.83
2023-04-10T21:55:28.282Z,18.80
2023-04-10T21:57:57.869Z,20.95
2023-04-10T22:00:26.267Z,20.05
2023-04-10T22:02:54.879Z,16.25
2023-04-10T22:05:24.882Z,22.33
2023-04-10T22:07:53.629Z,20.02
2023-04-10T22:10:21.809Z,21.13
2023-04-10T22:12:50.211Z,20.40
2023-04-10T22:15:18.340Z,25.83
2023-04-10T22:17:46.764Z,19.65
2023-04-10T22:20:14.916Z,20.38
2023-04-10T22:22:44.747Z,20.52
2023-04-10T22:25:12.931Z,23.85
2023-04-10T22:27:41.489Z,19.02
2023-04-10T22:30:10.958Z,17.48
2023-04-10T22:32:39.402Z,18.95
2023-04-10T22:35:08.902Z,14.73
2023-04-10T22:37:37.476Z,14.93
2023-04-10T22:40:08.470Z,19.55
2023-04-10T22:42:36.872Z,16.45
2023-04-10T22:45:05.608Z,15.73
2023-04-10T22:47:34.150Z,17.92
2023-04-10T22:50:02.610Z,40.05
2023-04-10T22:52:30.975Z,24.38
2023-04-10T22:54:59.063Z,24.67
2023-04-10T22:57:28.799Z,24.80
2023-04-10T22:59:58.181Z,17.75
2023-04-10T23:02:28.561Z,30.45
2023-04-10T23:04:57.823Z,30.63
2023-04-10T23:07:27.740Z,26.65
2023-04-10T23:09:56.014Z,24.42
2023-04-10T23:12:24.553Z,27.73
2023-04-10T23:14:54.079Z,174.07
2023-04-10T23:17:22.555Z,659.58
2023-04-10T23:19:50.739Z,237.57
2023-04-10T23:22:19.340Z,616.95
2023-04-10T23:24:47.884Z,616.35
2023-04-10T23:27:16.238Z,547.45
2023-04-10T23:29:44.364Z,485.48
2023-04-10T23:32:14.126Z,368.25
2023-04-10T23:34:42.228Z,343.42
2023-04-10T23:37:10.576Z,201.25
2023-04-10T23:39:38.699Z,99.95
2023-04-10T23:42:07.147Z,32.67
2023-04-10T23:44:35.373Z,29.30
2023-04-10T23:47:03.845Z,95.15
2023-04-10T23:49:34.806Z,30.58
2023-04-10T23:52:03.169Z,23.98
2023-04-10T23:54:31.461Z,42.80
2023-04-10T23:57:00.330Z,43.95
2023-04-10T23:59:28.518Z,124.50
